createdAt,value
2019-02-24T00:00:20.316Z,7.36
2019-02-24T00:01:20.299Z,7.29
2019-02-24T00:02:20.282Z,7.33
2019-02-24T00:03:20.255Z,7.29
2019-02-24T00:04:20.241Z,7.31
2019-02-24T00:05:20.221Z,7.26
2019-02-24T00:06:20.194Z,7.26
2019-02-24T00:07:20.176Z,7.25
2019-02-24T00:08:20.149Z,7.22
2019-02-24T00:09:20.135Z,7.25
2019-02-24T00:10:20.113Z,7.15
2019-02-24T00:11:20.085Z,7.24
2019-02-24T00:12:20.065Z,7.22
2019-02-24T00:13:20.052Z,7.29
2019-02-24T00:14:20.024Z,7.26
2019-02-24T00:15:20.009Z,7.24
2019-02-24T00:16:19.991Z,7.25
2019-02-24T00:17:19.970Z,7.22
2019-02-24T00:18:19.941Z,7.28
2019-02-24T00:19:19.924Z,7.22
2019-02-24T00:20:19.898Z,7.22
2019-02-24T00:21:19.924Z,7.24
2019-02-24T00:22:19.864Z,7.18
2019-02-24T00:23:19.835Z,7.11
2019-02-24T00:24:19.827Z,7.15
2019-02-24T00:25:19.799Z,7.11
2019-02-24T00:26:19.780Z,7.07
2019-02-24T00:27:19.753Z,7.03
2019-02-24T00:28:19.731Z,7.16
2019-02-24T00:29:19.710Z,7.16
2019-02-24T00:30:19.691Z,7.11
2019-02-24T00:31:19.672Z,7.10
2019-02-24T00:32:19.647Z,7.06
2019-02-24T00:33:19.637Z,7.04
2019-02-24T00:34:19.603Z,6.97
2019-02-24T00:35:19.589Z,7.03
2019-02-24T00:36:19.566Z,7.01
2019-02-24T00:37:19.551Z,6.91
2019-02-24T00:38:20.850Z,6.97
2019-02-24T00:39:19.497Z,6.96
2019-02-24T00:40:19.483Z,6.91
2019-02-24T00:41:19.464Z,6.78
2019-02-24T00:42:19.443Z,6.68
2019-02-24T00:43:19.413Z,6.70
2019-02-24T00:44:19.398Z,6.65
2019-02-24T00:45:19.382Z,6.64
2019-02-24T00:46:19.356Z,6.47
2019-02-24T00:47:19.340Z,6.40
2019-02-24T00:48:19.311Z,6.32
2019-02-24T00:49:19.293Z,6.40
2019-02-24T00:50:19.265Z,6.37
2019-02-24T00:51:19.250Z,6.35
2019-02-24T00:52:19.224Z,6.37
2019-02-24T00:53:19.202Z,6.37
2019-02-24T00:54:19.179Z,6.43
2019-02-24T00:55:19.163Z,6.35
2019-02-24T00:56:19.141Z,6.35
2019-02-24T00:57:19.112Z,6.34
2019-02-24T00:58:19.095Z,6.42
2019-02-24T00:59:19.073Z,6.42
2019-02-24T01:00:19.056Z,6.35
2019-02-24T01:01:19.030Z,6.34
2019-02-24T01:02:19.009Z,6.43
2019-02-24T01:03:18.996Z,6.35
2019-02-24T01:04:18.968Z,6.37
2019-02-24T01:05:18.945Z,6.35
2019-02-24T01:06:18.924Z,6.42
2019-02-24T01:07:18.958Z,6.37
2019-02-24T01:08:18.882Z,6.38
2019-02-24T01:09:18.868Z,6.46
2019-02-24T01:10:18.842Z,6.45
2019-02-24T01:11:18.816Z,6.37
2019-02-24T01:12:18.795Z,6.42
2019-02-24T01:13:18.773Z,6.43
2019-02-24T01:14:18.757Z,6.40
2019-02-24T01:15:18.740Z,6.38
2019-02-24T01:16:18.709Z,6.37
2019-02-24T01:17:18.687Z,6.32
2019-02-24T01:18:18.671Z,6.27
2019-02-24T01:19:18.654Z,6.18
2019-02-24T01:20:18.623Z,6.27
2019-02-24T01:21:18.601Z,6.16
2019-02-24T01:22:18.585Z,6.18
2019-02-24T01:23:18.565Z,6.21
2019-02-24T01:24:18.545Z,6.19
2019-02-24T01:25:18.517Z,6.19
2019-02-24T01:26:18.495Z,6.19
2019-02-24T01:27:18.481Z,6.24
2019-02-24T01:28:25.108Z,6.13
2019-02-24T01:29:18.435Z,6.13
2019-02-24T01:30:18.415Z,6.13
2019-02-24T01:31:18.399Z,6.27
2019-02-24T01:32:18.394Z,6.18
2019-02-24T01:33:18.358Z,6.13
2019-02-24T01:34:18.324Z,6.15
2019-02-24T01:35:18.304Z,6.15
2019-02-24T01:36:18.281Z,6.15
2019-02-24T01:37:18.268Z,6.13
2019-02-24T01:38:18.239Z,6.16
2019-02-24T01:39:18.220Z,6.18
2019-02-24T01:40:18.198Z,6.15
2019-02-24T01:41:18.176Z,6.18
2019-02-24T01:42:18.153Z,6.13
2019-02-24T01:43:18.134Z,6.19
2019-02-24T01:44:18.112Z,5.97
2019-02-24T01:45:18.097Z,6.02
2019-02-24T01:46:18.069Z,6.06
2019-02-24T01:47:18.055Z,6.03
2019-02-24T01:48:18.026Z,6.03
2019-02-24T01:49:18.009Z,5.98
2019-02-24T01:50:17.984Z,5.95
2019-02-24T01:51:17.966Z,5.97
2019-02-24T01:52:17.945Z,5.90
2019-02-24T01:53:17.918Z,5.95
2019-02-24T01:54:17.895Z,6.06
2019-02-24T01:55:17.875Z,5.91
2019-02-24T01:56:17.860Z,5.95
2019-02-24T01:57:17.831Z,5.95
2019-02-24T01:58:17.809Z,5.84
2019-02-24T01:59:17.788Z,5.82
2019-02-24T02:00:17.766Z,5.80
2019-02-24T02:01:17.747Z,5.76
2019-02-24T02:02:17.724Z,5.82
2019-02-24T02:03:17.704Z,5.84
2019-02-24T02:04:17.687Z,5.73
2019-02-24T02:05:17.660Z,5.82
2019-02-24T02:06:17.637Z,5.82
2019-02-24T02:07:17.615Z,5.82
2019-02-24T02:08:17.595Z,5.76
2019-02-24T02:09:17.576Z,5.75
2019-02-24T02:10:17.549Z,5.87
2019-02-24T02:11:17.529Z,5.85
2019-02-24T02:12:17.517Z,5.85
2019-02-24T02:13:17.493Z,5.72
2019-02-24T02:14:17.469Z,5.87
2019-02-24T02:15:17.443Z,5.82
2019-02-24T02:16:17.430Z,5.79
2019-02-24T02:17:17.398Z,5.80
2019-02-24T02:18:17.432Z,5.80
2019-02-24T02:19:17.357Z,5.77
2019-02-24T02:20:17.335Z,5.79
2019-02-24T02:21:17.322Z,5.80
2019-02-24T02:22:17.291Z,5.73
2019-02-24T02:23:17.271Z,5.75
2019-02-24T02:24:17.253Z,5.79
2019-02-24T02:25:17.231Z,5.73
2019-02-24T02:26:17.211Z,5.79
2019-02-24T02:27:17.187Z,5.72
2019-02-24T02:28:17.162Z,5.70
2019-02-24T02:29:17.141Z,5.80
2019-02-24T02:30:17.119Z,5.65
2019-02-24T02:31:17.097Z,5.51
2019-02-24T02:32:17.074Z,5.39
2019-02-24T02:33:17.053Z,5.48
2019-02-24T02:34:17.035Z,5.37
2019-02-24T02:35:17.013Z,5.43
2019-02-24T02:36:16.990Z,5.36
2019-02-24T02:37:16.969Z,5.27
2019-02-24T02:38:16.947Z,5.48
2019-02-24T02:39:16.933Z,5.48
2019-02-24T02:40:16.906Z,5.57
2019-02-24T02:41:16.886Z,5.66
2019-02-24T02:42:16.866Z,5.73
2019-02-24T02:43:16.836Z,5.70
2019-02-24T02:44:16.814Z,5.79
2019-02-24T02:45:16.799Z,5.73
2019-02-24T02:46:16.769Z,5.76
2019-02-24T02:47:16.748Z,5.80
2019-02-24T02:48:16.726Z,5.85
2019-02-24T02:49:16.703Z,5.82
2019-02-24T02:50:16.682Z,5.79
2019-02-24T02:51:16.662Z,5.72
2019-02-24T02:52:16.643Z,5.77
2019-02-24T02:53:16.616Z,5.67
2019-02-24T02:54:16.595Z,5.65
2019-02-24T02:55:16.574Z,5.58
2019-02-24T02:56:16.552Z,5.59
2019-02-24T02:57:16.528Z,5.47
2019-02-24T02:58:16.509Z,5.44
2019-02-24T02:59:16.484Z,5.54
2019-02-24T03:00:16.467Z,5.48
2019-02-24T03:01:16.439Z,5.40
2019-02-24T03:02:24.067Z,5.43
2019-02-24T03:03:16.400Z,5.47
2019-02-24T03:04:16.379Z,5.47
2019-02-24T03:05:16.354Z,5.50
2019-02-24T03:06:16.329Z,5.44
2019-02-24T03:07:16.308Z,5.44
2019-02-24T03:08:16.286Z,5.41
2019-02-24T03:09:16.265Z,5.51
2019-02-24T03:10:16.244Z,5.37
2019-02-24T03:11:16.224Z,5.39
2019-02-24T03:12:16.196Z,5.37
2019-02-24T03:13:16.175Z,5.37
2019-02-24T03:14:16.156Z,5.27
2019-02-24T03:15:16.133Z,5.34
2019-02-24T03:16:16.158Z,5.19
2019-02-24T03:17:16.098Z,5.19
2019-02-24T03:18:16.066Z,5.18
2019-02-24T03:19:16.043Z,5.16
2019-02-24T03:20:16.023Z,5.18
2019-02-24T03:21:16.000Z,5.18
2019-02-24T03:22:15.977Z,5.22
2019-02-24T03:23:15.954Z,5.12
2019-02-24T03:24:15.939Z,5.07
2019-02-24T03:25:15.926Z,5.12
2019-02-24T03:26:15.887Z,5.16
2019-02-24T03:27:15.869Z,5.16
2019-02-24T03:28:15.845Z,5.16
2019-02-24T03:29:15.825Z,5.21
2019-02-24T03:30:15.804Z,5.19
2019-02-24T03:31:15.784Z,5.32
2019-02-24T03:32:15.765Z,5.25
2019-02-24T03:33:15.818Z,5.21
2019-02-24T03:34:15.715Z,5.22
2019-02-24T03:35:15.696Z,5.27
2019-02-24T03:36:15.669Z,5.30
2019-02-24T03:37:15.645Z,5.29
2019-02-24T03:38:15.635Z,5.21
2019-02-24T03:39:15.616Z,5.22
2019-02-24T03:40:15.582Z,5.25
2019-02-24T03:41:15.561Z,5.29
2019-02-24T03:42:15.540Z,5.32
2019-02-24T03:43:15.529Z,5.33
2019-02-24T03:44:15.499Z,5.30
2019-02-24T03:45:15.473Z,5.27
2019-02-24T03:46:15.448Z,5.29
2019-02-24T03:47:15.427Z,5.25
2019-02-24T03:48:15.408Z,5.34
2019-02-24T03:49:15.383Z,5.30
2019-02-24T03:50:15.373Z,5.34
2019-02-24T03:51:15.339Z,5.36
2019-02-24T03:52:15.318Z,5.33
2019-02-24T03:53:15.293Z,5.37
2019-02-24T03:54:15.273Z,5.33
2019-02-24T03:55:15.249Z,5.33
2019-02-24T03:56:15.233Z,5.39
2019-02-24T03:57:15.206Z,5.33
2019-02-24T03:58:15.190Z,5.39
2019-02-24T03:59:15.453Z,5.29
2019-02-24T04:00:15.141Z,5.30
2019-02-24T04:01:15.121Z,5.37
2019-02-24T04:02:15.096Z,5.48
2019-02-24T04:03:15.072Z,5.40
2019-02-24T04:04:15.051Z,5.40
2019-02-24T04:05:15.033Z,5.47
2019-02-24T04:06:15.006Z,5.43
2019-02-24T04:07:14.986Z,5.37
2019-02-24T04:08:14.962Z,5.37
2019-02-24T04:09:14.942Z,5.32
2019-02-24T04:10:14.917Z,5.19
2019-02-24T04:11:14.903Z,5.18
2019-02-24T04:12:14.884Z,5.24
2019-02-24T04:13:14.854Z,5.06
2019-02-24T04:14:14.834Z,5.16
2019-02-24T04:15:14.815Z,5.24
2019-02-24T04:16:14.791Z,5.21
2019-02-24T04:17:14.767Z,5.25
2019-02-24T04:18:14.743Z,5.18
2019-02-24T04:19:14.722Z,5.24
2019-02-24T04:20:14.701Z,5.33
2019-02-24T04:21:14.678Z,5.39
2019-02-24T04:22:14.656Z,5.33
2019-02-24T04:23:14.638Z,5.36
2019-02-24T04:24:14.631Z,5.36
2019-02-24T04:25:14.591Z,5.34
2019-02-24T04:26:14.569Z,5.51
2019-02-24T04:27:14.545Z,5.50
2019-02-24T04:28:14.524Z,5.51
2019-02-24T04:29:14.501Z,5.52
2019-02-24T04:30:14.480Z,5.51
2019-02-24T04:31:14.457Z,5.44
2019-02-24T04:32:14.434Z,5.37
2019-02-24T04:33:14.411Z,5.22
2019-02-24T04:34:14.387Z,5.19
2019-02-24T04:35:14.370Z,5.24
2019-02-24T04:36:14.346Z,5.18
2019-02-24T04:37:14.321Z,5.15
2019-02-24T04:38:15.969Z,5.06
2019-02-24T04:39:14.275Z,5.04
2019-02-24T04:40:14.255Z,5.03
2019-02-24T04:41:14.233Z,4.94
2019-02-24T04:42:14.212Z,4.86
2019-02-24T04:43:14.189Z,4.72
2019-02-24T04:44:14.169Z,4.79
2019-02-24T04:45:14.144Z,4.78
2019-02-24T04:46:14.122Z,4.77
2019-02-24T04:47:14.101Z,4.78
2019-02-24T04:48:14.081Z,4.82
2019-02-24T04:49:14.062Z,4.82
2019-02-24T04:50:14.032Z,4.78
2019-02-24T04:51:14.010Z,4.83
2019-02-24T04:52:13.992Z,4.86
2019-02-24T04:53:13.965Z,4.89
2019-02-24T04:54:13.944Z,4.82
2019-02-24T04:55:13.922Z,4.77
2019-02-24T04:56:13.907Z,4.78
2019-02-24T04:57:13.884Z,4.79
2019-02-24T04:58:13.863Z,4.82
2019-02-24T04:59:13.830Z,4.83
2019-02-24T05:00:13.809Z,4.85
2019-02-24T05:01:13.786Z,4.93
2019-02-24T05:02:13.764Z,4.94
2019-02-24T05:03:13.746Z,4.83
2019-02-24T05:04:13.719Z,4.86
2019-02-24T05:05:13.701Z,4.86
2019-02-24T05:06:13.676Z,4.75
2019-02-24T05:07:13.654Z,4.71
2019-02-24T05:08:13.632Z,4.67
2019-02-24T05:09:13.613Z,4.75
2019-02-24T05:10:13.587Z,4.88
2019-02-24T05:11:13.577Z,4.77
2019-02-24T05:12:13.550Z,4.77
2019-02-24T05:13:13.518Z,4.79
2019-02-24T05:14:13.498Z,4.77
2019-02-24T05:15:13.476Z,4.59
2019-02-24T05:16:13.453Z,4.61
2019-02-24T05:17:13.434Z,4.61
2019-02-24T05:18:13.411Z,4.66
2019-02-24T05:19:13.387Z,4.60
2019-02-24T05:20:13.363Z,4.60
2019-02-24T05:21:13.342Z,4.64
2019-02-24T05:22:13.317Z,4.66
2019-02-24T05:23:13.299Z,4.69
2019-02-24T05:24:13.273Z,4.71
2019-02-24T05:25:13.251Z,4.64
2019-02-24T05:26:13.228Z,4.72
2019-02-24T05:27:13.209Z,4.69
2019-02-24T05:28:13.184Z,4.67
2019-02-24T05:29:13.165Z,4.71
2019-02-24T05:30:13.140Z,4.74
2019-02-24T05:31:13.117Z,4.77
2019-02-24T05:32:13.098Z,4.83
2019-02-24T05:33:13.077Z,4.78
2019-02-24T05:34:13.052Z,4.72
2019-02-24T05:35:13.025Z,4.74
2019-02-24T05:36:13.010Z,4.61
2019-02-24T05:37:12.983Z,4.66
2019-02-24T05:38:12.958Z,4.69
2019-02-24T05:39:12.938Z,4.75
2019-02-24T05:40:12.915Z,4.66
2019-02-24T05:41:12.894Z,4.72
2019-02-24T05:42:12.873Z,4.79
2019-02-24T05:43:12.846Z,4.66
2019-02-24T05:44:12.847Z,4.61
2019-02-24T05:45:12.806Z,4.64
2019-02-24T05:46:12.781Z,4.63
2019-02-24T05:47:12.756Z,4.69
2019-02-24T05:48:12.745Z,4.61
2019-02-24T05:49:12.718Z,4.59
2019-02-24T05:50:12.689Z,4.56
2019-02-24T05:51:12.668Z,4.59
2019-02-24T05:52:12.649Z,4.56
2019-02-24T05:53:12.626Z,4.57
2019-02-24T05:54:12.599Z,4.64
2019-02-24T05:55:12.578Z,4.56
2019-02-24T05:56:12.559Z,4.64
2019-02-24T05:57:12.534Z,4.63
2019-02-24T05:58:12.510Z,4.57
2019-02-24T05:59:12.492Z,4.56
2019-02-24T06:00:12.470Z,4.49
2019-02-24T06:01:12.445Z,4.43
2019-02-24T06:02:12.425Z,4.39
2019-02-24T06:03:12.400Z,4.35
2019-02-24T06:04:12.378Z,4.12
2019-02-24T06:05:12.360Z,4.16
2019-02-24T06:06:12.334Z,4.13
2019-02-24T06:07:12.311Z,4.10
2019-02-24T06:08:12.285Z,4.13
2019-02-24T06:09:12.266Z,4.20
2019-02-24T06:10:12.242Z,4.17
2019-02-24T06:11:12.220Z,4.10
2019-02-24T06:12:12.197Z,4.08
2019-02-24T06:13:12.172Z,4.00
2019-02-24T06:14:12.155Z,3.94
2019-02-24T06:15:12.129Z,3.84
2019-02-24T06:16:12.116Z,3.78
2019-02-24T06:17:12.083Z,3.66
2019-02-24T06:18:12.066Z,3.35
2019-02-24T06:19:12.038Z,3.14
2019-02-24T06:20:12.015Z,2.99
2019-02-24T06:21:11.990Z,2.89
2019-02-24T06:22:11.974Z,2.86
2019-02-24T06:23:11.947Z,2.71
2019-02-24T06:24:11.925Z,2.71
2019-02-24T06:25:11.910Z,2.84
2019-02-24T06:26:11.878Z,2.87
2019-02-24T06:27:11.860Z,2.91
2019-02-24T06:28:11.832Z,3.08
2019-02-24T06:29:11.807Z,3.09
2019-02-24T06:30:11.786Z,3.29
2019-02-24T06:31:11.764Z,3.36
2019-02-24T06:32:11.738Z,3.52
2019-02-24T06:33:11.725Z,3.66
2019-02-24T06:34:11.694Z,3.66
2019-02-24T06:35:11.674Z,3.82
2019-02-24T06:36:11.645Z,3.90
2019-02-24T06:37:11.622Z,4.00
2019-02-24T06:38:11.607Z,3.91
2019-02-24T06:39:11.576Z,4.08
2019-02-24T06:40:11.556Z,4.12
2019-02-24T06:41:11.555Z,3.99
2019-02-24T06:42:11.510Z,3.85
2019-02-24T06:43:11.484Z,3.96
2019-02-24T06:44:11.463Z,4.05
2019-02-24T06:45:11.437Z,4.03
2019-02-24T06:46:11.416Z,3.98
2019-02-24T06:47:11.397Z,4.09
2019-02-24T06:48:11.371Z,4.05
2019-02-24T06:49:11.347Z,4.09
2019-02-24T06:50:11.333Z,4.09
2019-02-24T06:51:11.304Z,4.21
2019-02-24T06:52:11.280Z,4.24
2019-02-24T06:53:11.256Z,4.27
2019-02-24T06:54:11.236Z,4.43
2019-02-24T06:55:11.214Z,4.77
2019-02-24T06:56:11.191Z,5.47
2019-02-24T06:57:11.167Z,5.90
2019-02-24T06:58:11.145Z,6.30
2019-02-24T06:59:11.124Z,6.83
2019-02-24T07:00:14.097Z,7.13
2019-02-24T07:01:11.085Z,7.39
2019-02-24T07:02:11.070Z,7.61
2019-02-24T07:03:11.046Z,7.87
2019-02-24T07:04:11.028Z,8.14
2019-02-24T07:05:11.012Z,8.41
2019-02-24T07:06:10.990Z,8.55
2019-02-24T07:07:10.970Z,8.63
2019-02-24T07:08:10.954Z,8.85
2019-02-24T07:09:10.936Z,8.89
2019-02-24T07:10:10.917Z,9.06
2019-02-24T07:11:10.907Z,9.23
2019-02-24T07:12:10.887Z,9.48
2019-02-24T07:13:10.871Z,9.59
2019-02-24T07:14:10.854Z,9.77
2019-02-24T07:15:10.891Z,9.90
2019-02-24T07:16:10.833Z,10.09
2019-02-24T07:17:10.813Z,10.08
2019-02-24T07:18:10.797Z,10.23
2019-02-24T07:19:10.784Z,10.42
2019-02-24T07:20:10.772Z,10.55
2019-02-24T07:21:10.764Z,10.75
2019-02-24T07:22:10.746Z,10.90
2019-02-24T07:23:10.733Z,10.97
2019-02-24T07:24:10.722Z,11.05
2019-02-24T07:25:10.707Z,11.20
2019-02-24T07:26:10.700Z,11.41
2019-02-24T07:27:10.699Z,11.55
2019-02-24T07:28:10.677Z,11.71
2019-02-24T07:29:10.662Z,11.96
2019-02-24T07:30:10.652Z,12.17
2019-02-24T07:31:10.655Z,12.43
2019-02-24T07:32:10.631Z,12.54
2019-02-24T07:33:12.379Z,12.62
2019-02-24T07:34:10.612Z,12.91
2019-02-24T07:35:10.602Z,12.99
2019-02-24T07:36:10.597Z,13.01
2019-02-24T07:37:12.989Z,13.17
2019-02-24T07:38:10.575Z,13.17
2019-02-24T07:39:10.564Z,13.49
2019-02-24T07:40:10.557Z,13.71
2019-02-24T07:41:10.550Z,13.88
2019-02-24T07:42:10.550Z,14.08
2019-02-24T07:43:10.531Z,14.19
2019-02-24T07:44:10.523Z,14.28
2019-02-24T07:45:10.521Z,14.33
2019-02-24T07:46:10.508Z,14.46
2019-02-24T07:47:10.502Z,14.73
2019-02-24T07:48:10.502Z,14.95
2019-02-24T07:49:10.485Z,15.26
2019-02-24T07:50:10.477Z,15.69
2019-02-24T07:51:12.358Z,15.98
2019-02-24T07:52:10.469Z,16.09
2019-02-24T07:53:10.458Z,16.49
2019-02-24T07:54:10.458Z,16.97
2019-02-24T07:55:10.446Z,17.25
2019-02-24T07:56:10.442Z,17.45
2019-02-24T07:57:10.438Z,17.65
2019-02-24T07:58:10.429Z,17.75
2019-02-24T07:59:10.424Z,18.05
2019-02-24T08:00:10.422Z,18.20
2019-02-24T08:01:10.418Z,18.31
2019-02-24T08:02:10.407Z,18.43
2019-02-24T08:03:10.405Z,18.60
2019-02-24T08:04:10.404Z,18.76
2019-02-24T08:05:10.395Z,18.91
2019-02-24T08:06:10.401Z,18.94
2019-02-24T08:07:10.392Z,18.85
2019-02-24T08:08:16.282Z,18.94
2019-02-24T08:09:10.379Z,19.13
2019-02-24T08:10:10.376Z,18.98
2019-02-24T08:11:10.374Z,19.07
2019-02-24T08:12:10.368Z,19.08
2019-02-24T08:13:10.375Z,19.35
2019-02-24T08:14:10.365Z,18.51
2019-02-24T08:15:10.372Z,18.66
2019-02-24T08:16:10.356Z,18.45
2019-02-24T08:17:10.351Z,18.74
2019-02-24T08:18:10.350Z,18.64
2019-02-24T08:19:10.349Z,18.60
2019-02-24T08:20:10.344Z,18.60
2019-02-24T08:21:10.341Z,18.18
2019-02-24T08:22:10.337Z,18.15
2019-02-24T08:23:11.061Z,18.52
2019-02-24T08:24:10.336Z,19.01
2019-02-24T08:25:10.341Z,19.45
2019-02-24T08:26:10.333Z,19.63
2019-02-24T08:27:10.334Z,18.88
2019-02-24T08:28:10.337Z,19.13
2019-02-24T08:29:10.322Z,18.78
2019-02-24T08:30:10.321Z,17.79
2019-02-24T08:31:10.329Z,17.47
2019-02-24T08:32:10.320Z,17.90
2019-02-24T08:33:10.315Z,17.50
2019-02-24T08:34:10.319Z,18.43
2019-02-24T08:35:10.315Z,18.45
2019-02-24T08:36:10.313Z,18.88
2019-02-24T08:37:10.309Z,18.49
2019-02-24T08:38:10.307Z,16.83
2019-02-24T08:39:10.305Z,15.76
2019-02-24T08:40:10.315Z,15.58
2019-02-24T08:41:10.300Z,16.16
2019-02-24T08:42:10.304Z,16.69
2019-02-24T08:43:10.296Z,17.38
2019-02-24T08:44:10.298Z,17.88
2019-02-24T08:45:10.297Z,17.49
2019-02-24T08:46:10.289Z,18.05
2019-02-24T08:47:10.292Z,18.61
2019-02-24T08:48:10.286Z,18.68
2019-02-24T08:49:10.281Z,19.07
2019-02-24T08:50:10.281Z,19.52
2019-02-24T08:51:10.285Z,19.63
2019-02-24T08:52:10.287Z,20.09
2019-02-24T08:53:10.287Z,20.22
2019-02-24T08:54:10.276Z,20.49
2019-02-24T08:55:10.274Z,20.93
2019-02-24T08:56:10.274Z,21.48
2019-02-24T08:57:10.271Z,21.97
2019-02-24T08:58:10.270Z,22.25
2019-02-24T08:59:10.270Z,22.28
2019-02-24T09:00:10.269Z,22.21
2019-02-24T09:01:10.267Z,22.12
2019-02-24T09:02:10.266Z,22.11
2019-02-24T09:03:10.264Z,21.91
2019-02-24T09:04:10.267Z,22.55
2019-02-24T09:05:10.270Z,22.95
2019-02-24T09:06:10.261Z,22.96
2019-02-24T09:07:10.261Z,23.15
2019-02-24T09:08:10.261Z,23.15
2019-02-24T09:09:10.260Z,22.86
2019-02-24T09:10:10.257Z,22.81
2019-02-24T09:11:10.279Z,22.83
2019-02-24T09:12:10.258Z,22.78
2019-02-24T09:13:10.257Z,22.86
2019-02-24T09:14:10.260Z,23.04
2019-02-24T09:15:10.257Z,23.14
2019-02-24T09:16:10.260Z,23.21
2019-02-24T09:17:10.251Z,23.22
2019-02-24T09:18:10.252Z,22.71
2019-02-24T09:19:10.253Z,22.92
2019-02-24T09:20:10.254Z,23.48
2019-02-24T09:21:10.262Z,22.78
2019-02-24T09:22:10.251Z,21.50
2019-02-24T09:23:10.251Z,21.51
2019-02-24T09:24:10.250Z,21.75
2019-02-24T09:25:10.248Z,21.91
2019-02-24T09:26:10.248Z,22.18
2019-02-24T09:27:10.248Z,22.27
2019-02-24T09:28:10.246Z,22.49
2019-02-24T09:29:10.248Z,22.74
2019-02-24T09:30:10.246Z,23.08
2019-02-24T09:31:10.246Z,23.36
2019-02-24T09:32:10.245Z,23.36
2019-02-24T09:33:10.246Z,23.48
2019-02-24T09:34:10.241Z,23.48
2019-02-24T09:35:10.239Z,23.67
2019-02-24T09:36:10.248Z,23.52
2019-02-24T09:37:10.249Z,23.18
2019-02-24T09:38:10.239Z,23.23
2019-02-24T09:39:10.248Z,23.33
2019-02-24T09:40:10.233Z,23.29
2019-02-24T09:41:10.231Z,23.73
2019-02-24T09:42:10.240Z,23.60
2019-02-24T09:43:10.229Z,23.34
2019-02-24T09:44:10.230Z,23.07
2019-02-24T09:45:10.228Z,23.25
2019-02-24T09:46:10.225Z,23.34
2019-02-24T09:47:10.229Z,23.33
2019-02-24T09:48:10.229Z,23.41
2019-02-24T09:49:10.219Z,23.15
2019-02-24T09:50:10.233Z,23.18
2019-02-24T09:51:10.220Z,23.22
2019-02-24T09:52:10.227Z,23.48
2019-02-24T09:53:10.216Z,23.85
2019-02-24T09:54:10.213Z,24.03
2019-02-24T09:55:10.213Z,24.25
2019-02-24T09:56:10.207Z,23.98
2019-02-24T09:57:10.209Z,23.96
2019-02-24T09:58:10.211Z,23.86
2019-02-24T09:59:10.198Z,23.82
2019-02-24T10:00:10.198Z,23.74
2019-02-24T10:01:11.094Z,23.71
2019-02-24T10:02:10.193Z,23.85
2019-02-24T10:03:10.193Z,23.76
2019-02-24T10:04:10.188Z,23.64
2019-02-24T10:05:10.189Z,23.48
2019-02-24T10:06:10.180Z,23.61
2019-02-24T10:07:10.184Z,23.71
2019-02-24T10:08:10.179Z,23.86
2019-02-24T10:09:10.174Z,23.98
2019-02-24T10:10:10.169Z,24.34
2019-02-24T10:11:10.169Z,24.47
2019-02-24T10:12:10.172Z,24.01
2019-02-24T10:13:10.163Z,24.06
2019-02-24T10:14:10.158Z,24.15
2019-02-24T10:15:10.157Z,24.15
2019-02-24T10:16:10.155Z,23.21
2019-02-24T10:17:10.146Z,23.36
2019-02-24T10:18:10.144Z,23.33
2019-02-24T10:19:10.142Z,23.36
2019-02-24T10:20:10.141Z,23.34
2019-02-24T10:21:10.137Z,22.88
2019-02-24T10:22:10.129Z,22.61
2019-02-24T10:23:10.366Z,22.66
2019-02-24T10:24:10.122Z,21.98
2019-02-24T10:25:10.135Z,22.23
2019-02-24T10:26:10.110Z,21.84
2019-02-24T10:27:10.108Z,22.38
2019-02-24T10:28:10.154Z,22.86
2019-02-24T10:29:10.099Z,22.80
2019-02-24T10:30:10.100Z,22.86
2019-02-24T10:31:19.401Z,22.64
2019-02-24T10:32:10.083Z,22.76
2019-02-24T10:33:10.082Z,22.83
2019-02-24T10:34:10.076Z,22.68
2019-02-24T10:35:10.070Z,22.48
2019-02-24T10:36:10.063Z,22.67
2019-02-24T10:37:10.065Z,22.86
2019-02-24T10:38:10.067Z,23.08
2019-02-24T10:39:10.049Z,23.28
2019-02-24T10:40:12.315Z,22.27
2019-02-24T10:41:10.043Z,21.78
2019-02-24T10:42:10.034Z,22.00
2019-02-24T10:43:10.026Z,22.37
2019-02-24T10:44:10.020Z,22.73
2019-02-24T10:45:10.014Z,22.91
2019-02-24T10:46:11.388Z,23.22
2019-02-24T10:47:10.006Z,23.37
2019-02-24T10:48:13.976Z,23.73
2019-02-24T10:49:10.000Z,23.74
2019-02-24T10:50:09.985Z,23.59
2019-02-24T10:51:09.978Z,23.45
2019-02-24T10:52:09.970Z,23.45
2019-02-24T10:53:09.967Z,23.33
2019-02-24T10:54:09.962Z,23.15
2019-02-24T10:55:09.953Z,23.29
2019-02-24T10:56:09.952Z,22.89
2019-02-24T10:57:12.954Z,22.46
2019-02-24T10:58:09.945Z,22.55
2019-02-24T10:59:09.927Z,22.46
2019-02-24T11:00:09.922Z,22.62
2019-02-24T11:01:09.916Z,22.85
2019-02-24T11:02:09.909Z,22.98
2019-02-24T11:03:09.909Z,22.89
2019-02-24T11:04:09.898Z,22.96
2019-02-24T11:05:09.889Z,22.92
2019-02-24T11:06:09.883Z,23.01
2019-02-24T11:07:09.889Z,22.83
2019-02-24T11:08:09.869Z,22.98
2019-02-24T11:09:09.873Z,22.11
2019-02-24T11:10:09.861Z,22.11
2019-02-24T11:11:09.850Z,22.28
2019-02-24T11:12:09.852Z,22.52
2019-02-24T11:13:09.842Z,22.68
2019-02-24T11:14:09.833Z,22.77
2019-02-24T11:15:09.854Z,22.86
2019-02-24T11:16:09.821Z,22.81
2019-02-24T11:17:09.813Z,22.86
2019-02-24T11:18:09.803Z,22.46
2019-02-24T11:19:09.800Z,21.77
2019-02-24T11:20:09.790Z,21.53
2019-02-24T11:21:09.784Z,21.08
2019-02-24T11:22:09.778Z,21.10
2019-02-24T11:23:09.772Z,21.34
2019-02-24T11:24:09.763Z,21.51
2019-02-24T11:25:09.770Z,21.37
2019-02-24T11:26:09.761Z,21.58
2019-02-24T11:27:09.754Z,21.88
2019-02-24T11:28:09.745Z,21.88
2019-02-24T11:29:09.726Z,22.04
2019-02-24T11:30:09.720Z,22.04
2019-02-24T11:31:09.723Z,22.12
2019-02-24T11:32:09.714Z,22.46
2019-02-24T11:33:09.696Z,22.58
2019-02-24T11:34:09.693Z,22.67
2019-02-24T11:35:09.684Z,22.68
2019-02-24T11:36:09.685Z,22.80
2019-02-24T11:37:09.674Z,22.78
2019-02-24T11:38:09.672Z,22.85
2019-02-24T11:39:09.658Z,22.83
2019-02-24T11:40:09.646Z,22.76
2019-02-24T11:41:09.635Z,22.86
2019-02-24T11:42:09.633Z,22.88
2019-02-24T11:43:09.625Z,22.86
2019-02-24T11:44:09.613Z,22.91
2019-02-24T11:45:09.611Z,23.04
2019-02-24T11:46:09.605Z,23.21
2019-02-24T11:47:09.597Z,23.42
2019-02-24T11:48:09.599Z,23.61
2019-02-24T11:49:09.582Z,23.79
2019-02-24T11:50:09.574Z,23.76
2019-02-24T11:51:09.563Z,23.76
2019-02-24T11:52:09.556Z,23.79
2019-02-24T11:53:09.547Z,23.81
2019-02-24T11:54:09.543Z,23.29
2019-02-24T11:55:09.540Z,23.21
2019-02-24T11:56:09.524Z,23.18
2019-02-24T11:57:09.516Z,22.92
2019-02-24T11:58:09.521Z,22.85
2019-02-24T11:59:09.516Z,22.83
2019-02-24T12:00:09.499Z,22.77
2019-02-24T12:01:09.493Z,22.80
2019-02-24T12:02:09.479Z,23.07
2019-02-24T12:03:09.471Z,23.15
2019-02-24T12:04:09.471Z,23.31
2019-02-24T12:05:09.465Z,23.18
2019-02-24T12:06:09.472Z,23.04
2019-02-24T12:07:09.449Z,23.07
2019-02-24T12:08:09.435Z,23.01
2019-02-24T12:09:09.426Z,22.95
2019-02-24T12:10:09.426Z,22.64
2019-02-24T12:11:09.412Z,22.62
2019-02-24T12:12:09.406Z,22.38
2019-02-24T12:13:09.401Z,22.48
2019-02-24T12:14:09.400Z,22.51
2019-02-24T12:15:09.381Z,22.58
2019-02-24T12:16:09.380Z,22.58
2019-02-24T12:17:09.402Z,22.61
2019-02-24T12:18:09.359Z,22.70
2019-02-24T12:19:09.350Z,22.85
2019-02-24T12:20:09.342Z,22.99
2019-02-24T12:21:10.750Z,23.15
2019-02-24T12:22:09.326Z,23.18
2019-02-24T12:23:09.330Z,23.37
2019-02-24T12:24:09.314Z,23.23
2019-02-24T12:25:09.306Z,23.14
2019-02-24T12:26:09.295Z,23.13
2019-02-24T12:27:09.288Z,23.34
2019-02-24T12:28:09.283Z,23.42
2019-02-24T12:29:09.272Z,23.44
2019-02-24T12:30:09.265Z,23.36
2019-02-24T12:31:09.262Z,23.55
2019-02-24T12:32:09.246Z,23.74
2019-02-24T12:33:09.242Z,23.82
2019-02-24T12:34:09.240Z,23.74
2019-02-24T12:35:09.225Z,23.66
2019-02-24T12:36:09.218Z,23.36
2019-02-24T12:37:09.208Z,23.14
2019-02-24T12:38:09.203Z,22.64
2019-02-24T12:39:09.193Z,22.74
2019-02-24T12:40:09.186Z,22.52
2019-02-24T12:41:09.178Z,22.68
2019-02-24T12:42:09.174Z,22.80
2019-02-24T12:43:09.165Z,23.03
2019-02-24T12:44:09.153Z,23.21
2019-02-24T12:45:09.155Z,23.44
2019-02-24T12:46:09.140Z,23.60
2019-02-24T12:47:09.129Z,23.59
2019-02-24T12:48:09.124Z,23.56
2019-02-24T12:49:09.112Z,23.59
2019-02-24T12:50:09.104Z,23.51
2019-02-24T12:51:09.103Z,23.25
2019-02-24T12:52:09.102Z,23.34
2019-02-24T12:53:09.080Z,23.22
2019-02-24T12:54:09.071Z,22.99
2019-02-24T12:55:09.068Z,22.71
2019-02-24T12:56:09.059Z,22.49
2019-02-24T12:57:09.046Z,22.48
2019-02-24T12:58:09.045Z,22.85
2019-02-24T12:59:09.036Z,22.74
2019-02-24T13:00:09.029Z,22.13
2019-02-24T13:01:09.012Z,21.62
2019-02-24T13:02:09.006Z,21.58
2019-02-24T13:03:09.001Z,20.93
2019-02-24T13:04:08.996Z,20.46
2019-02-24T13:05:08.992Z,20.30
2019-02-24T13:06:08.972Z,20.53